createdAt,value
2019-01-16T00:00:09.642Z,1005.89
2019-01-16T00:01:09.612Z,1005.90
2019-01-16T00:02:09.558Z,1005.85
2019-01-16T00:03:09.627Z,1005.85
2019-01-16T00:04:09.486Z,1005.86
2019-01-16T00:05:11.480Z,1005.88
2019-01-16T00:06:09.428Z,1005.88
2019-01-16T00:07:09.443Z,1005.85
2019-01-16T00:08:09.367Z,1005.85
2019-01-16T00:09:09.355Z,1005.83
2019-01-16T00:10:09.305Z,1005.86
2019-01-16T00:11:09.368Z,1005.83
2019-01-16T00:12:09.244Z,1005.81
2019-01-16T00:13:11.231Z,1005.79
2019-01-16T00:14:09.195Z,1005.75
2019-01-16T00:15:09.191Z,1005.81
2019-01-16T00:16:09.113Z,1005.83
2019-01-16T00:17:09.102Z,1005.83
2019-01-16T00:18:09.052Z,1005.81
2019-01-16T00:19:17.830Z,1005.76
2019-01-16T00:20:08.989Z,1005.72
2019-01-16T00:21:16.805Z,1005.76
2019-01-16T00:22:08.941Z,1005.74
2019-01-16T00:23:08.935Z,1005.76
2019-01-16T00:24:08.884Z,1005.74
2019-01-16T00:25:08.883Z,1005.74
2019-01-16T00:26:08.795Z,1005.74
2019-01-16T00:27:09.905Z,1005.71
2019-01-16T00:28:08.735Z,1005.68
2019-01-16T00:29:09.800Z,1005.64
2019-01-16T00:30:08.677Z,1005.64
2019-01-16T00:31:08.685Z,1005.61
2019-01-16T00:32:08.619Z,1005.62
2019-01-16T00:33:08.582Z,1005.63
2019-01-16T00:34:08.545Z,1005.68
2019-01-16T00:35:08.615Z,1005.67
2019-01-16T00:36:08.495Z,1005.63
2019-01-16T00:37:15.275Z,1005.63
2019-01-16T00:38:08.422Z,1005.60
2019-01-16T00:39:08.420Z,1005.64
2019-01-16T00:40:08.364Z,1005.58
2019-01-16T00:41:23.288Z,1005.64
2019-01-16T00:42:08.309Z,1005.62
2019-01-16T00:43:15.309Z,1005.59
2019-01-16T00:44:08.243Z,1005.60
2019-01-16T00:45:09.285Z,1005.52
2019-01-16T00:46:08.185Z,1005.54
2019-01-16T00:47:08.169Z,1005.56
2019-01-16T00:48:08.115Z,1005.57
2019-01-16T00:49:14.839Z,1005.57
2019-01-16T00:50:08.054Z,1005.57
2019-01-16T00:51:08.090Z,1005.53
2019-01-16T00:52:07.989Z,1005.51
2019-01-16T00:53:09.027Z,1005.46
2019-01-16T00:54:07.920Z,1005.50
2019-01-16T00:55:07.910Z,1005.48
2019-01-16T00:56:07.857Z,1005.49
2019-01-16T00:57:15.808Z,1005.44
2019-01-16T00:58:07.797Z,1005.49
2019-01-16T00:59:08.909Z,1005.51
2019-01-16T01:00:07.734Z,1005.46
2019-01-16T01:01:08.778Z,1005.47
2019-01-16T01:02:07.670Z,1005.40
2019-01-16T01:03:14.321Z,1005.45
2019-01-16T01:04:07.604Z,1005.39
2019-01-16T01:05:07.676Z,1005.34
2019-01-16T01:06:07.547Z,1005.33
2019-01-16T01:07:14.344Z,1005.36
2019-01-16T01:08:07.496Z,1005.39
2019-01-16T01:09:09.543Z,1005.43
2019-01-16T01:10:07.424Z,1005.37
2019-01-16T01:11:07.397Z,1005.43
2019-01-16T01:12:07.353Z,1005.36
2019-01-16T01:13:07.416Z,1005.34
2019-01-16T01:14:07.329Z,1005.33
2019-01-16T01:15:14.302Z,1005.31
2019-01-16T01:16:07.234Z,1005.34
2019-01-16T01:17:07.241Z,1005.33
2019-01-16T01:18:07.169Z,1005.31
2019-01-16T01:19:09.209Z,1005.32
2019-01-16T01:20:07.104Z,1005.35
2019-01-16T01:21:13.819Z,1005.28
2019-01-16T01:22:07.050Z,1005.32
2019-01-16T01:23:07.068Z,1005.33
2019-01-16T01:24:06.987Z,1005.27
2019-01-16T01:25:06.986Z,1005.28
2019-01-16T01:26:06.921Z,1005.33
2019-01-16T01:27:06.997Z,1005.28
2019-01-16T01:28:06.864Z,1005.27
2019-01-16T01:29:06.898Z,1005.26
2019-01-16T01:30:06.786Z,1005.25
2019-01-16T01:31:06.816Z,1005.34
2019-01-16T01:32:06.729Z,1005.26
2019-01-16T01:33:06.725Z,1005.28
2019-01-16T01:34:06.678Z,1005.27
2019-01-16T01:35:08.681Z,1005.30
2019-01-16T01:36:06.604Z,1005.24
2019-01-16T01:37:06.654Z,1005.17
2019-01-16T01:38:06.549Z,1005.20
2019-01-16T01:39:06.558Z,1005.25
2019-01-16T01:40:06.479Z,1005.21
2019-01-16T01:41:08.518Z,1005.23
2019-01-16T01:42:06.415Z,1005.32
2019-01-16T01:43:06.496Z,1005.28
2019-01-16T01:44:06.353Z,1005.32
2019-01-16T01:45:13.255Z,1005.32
2019-01-16T01:46:06.291Z,1005.31
2019-01-16T01:47:06.310Z,1005.29
2019-01-16T01:48:06.230Z,1005.31
2019-01-16T01:49:06.213Z,1005.30
2019-01-16T01:50:06.156Z,1005.28
2019-01-16T01:51:06.247Z,1005.30
2019-01-16T01:52:06.104Z,1005.24
2019-01-16T01:53:06.147Z,1005.24
2019-01-16T01:54:06.040Z,1005.32
2019-01-16T01:55:06.075Z,1005.27
2019-01-16T01:56:05.985Z,1005.25
2019-01-16T01:57:06.070Z,1005.30
2019-01-16T01:58:05.932Z,1005.26
2019-01-16T01:59:05.974Z,1005.25
2019-01-16T02:00:05.858Z,1005.22
2019-01-16T02:01:05.899Z,1005.23
2019-01-16T02:02:05.801Z,1005.23
2019-01-16T02:03:05.794Z,1005.25
2019-01-16T02:04:05.750Z,1005.24
2019-01-16T02:05:05.818Z,1005.19
2019-01-16T02:06:05.691Z,1005.22
2019-01-16T02:07:07.676Z,1005.21
2019-01-16T02:08:05.611Z,1005.19
2019-01-16T02:09:05.624Z,1005.24
2019-01-16T02:10:05.550Z,1005.17
2019-01-16T02:11:05.547Z,1005.16
2019-01-16T02:12:05.489Z,1005.11
2019-01-16T02:13:05.607Z,1005.13
2019-01-16T02:14:05.419Z,1005.12
2019-01-16T02:15:05.471Z,1005.08
2019-01-16T02:16:05.363Z,1005.10
2019-01-16T02:17:05.379Z,1005.06
2019-01-16T02:18:05.314Z,1005.06
2019-01-16T02:19:05.299Z,1005.10
2019-01-16T02:20:05.242Z,1005.12
2019-01-16T02:21:05.345Z,1005.11
2019-01-16T02:22:05.165Z,1005.10
2019-01-16T02:23:05.212Z,1005.16
2019-01-16T02:24:05.105Z,1005.14
2019-01-16T02:25:05.126Z,1005.15
2019-01-16T02:26:05.032Z,1005.19
2019-01-16T02:27:06.067Z,1005.19
2019-01-16T02:28:04.974Z,1005.16
2019-01-16T02:29:05.039Z,1005.16
2019-01-16T02:30:04.912Z,1005.18
2019-01-16T02:31:07.002Z,1005.11
2019-01-16T02:32:04.856Z,1005.17
2019-01-16T02:33:05.897Z,1005.10
2019-01-16T02:34:04.784Z,1005.09
2019-01-16T02:35:04.770Z,1005.08
2019-01-16T02:36:04.734Z,1005.10
2019-01-16T02:37:04.785Z,1005.13
2019-01-16T02:38:04.683Z,1005.14
2019-01-16T02:39:04.728Z,1005.12
2019-01-16T02:40:04.606Z,1005.08
2019-01-16T02:41:04.629Z,1005.07
2019-01-16T02:42:04.544Z,1005.20
2019-01-16T02:43:06.578Z,1005.13
2019-01-16T02:44:04.477Z,1005.08
2019-01-16T02:45:04.518Z,1005.03
2019-01-16T02:46:04.422Z,1005.02
2019-01-16T02:47:04.470Z,1005.03
2019-01-16T02:48:04.350Z,1005.02
2019-01-16T02:49:11.319Z,1004.95
2019-01-16T02:50:04.304Z,1004.98
2019-01-16T02:51:06.345Z,1004.99
2019-01-16T02:52:04.232Z,1004.95
2019-01-16T02:53:04.270Z,1004.95
2019-01-16T02:54:04.159Z,1004.95
2019-01-16T02:55:04.183Z,1004.93
2019-01-16T02:56:04.097Z,1004.84
2019-01-16T02:57:19.875Z,1004.80
2019-01-16T02:58:04.038Z,1004.74
2019-01-16T02:59:04.104Z,1004.82
2019-01-16T03:00:03.976Z,1004.77
2019-01-16T03:01:05.060Z,1004.73
2019-01-16T03:02:03.922Z,1004.78
2019-01-16T03:03:03.912Z,1004.80
2019-01-16T03:04:03.847Z,1004.68
2019-01-16T03:05:03.831Z,1004.73
2019-01-16T03:06:03.784Z,1004.70
2019-01-16T03:07:03.759Z,1004.72
2019-01-16T03:08:03.756Z,1004.71
2019-01-16T03:09:03.697Z,1004.71
2019-01-16T03:10:03.769Z,1004.74
2019-01-16T03:11:03.630Z,1004.64
2019-01-16T03:12:27.335Z,1004.64
2019-01-16T03:13:03.566Z,1004.58
2019-01-16T03:16:31.519Z,1004.63
2019-01-16T03:17:32.590Z,1004.56
2019-01-16T03:18:31.443Z,1004.62
2019-01-16T03:19:31.477Z,1004.60
2019-01-16T03:20:31.381Z,1004.60
2019-01-16T03:21:31.389Z,1004.56
2019-01-16T03:22:31.324Z,1004.57
2019-01-16T03:23:33.355Z,1004.56
2019-01-16T03:24:31.255Z,1004.54
2019-01-16T03:25:31.309Z,1004.56
2019-01-16T03:26:31.202Z,1004.53
2019-01-16T03:27:31.212Z,1004.57
2019-01-16T03:28:31.129Z,1004.53
2019-01-16T03:29:31.131Z,1004.53
2019-01-16T03:30:31.069Z,1004.44
2019-01-16T03:31:31.151Z,1004.40
2019-01-16T03:32:31.001Z,1004.41
2019-01-16T03:33:32.988Z,1004.43
2019-01-16T03:34:30.939Z,1004.42
2019-01-16T03:35:33.012Z,1004.47
2019-01-16T03:36:30.890Z,1004.35
2019-01-16T03:37:32.913Z,1004.38
2019-01-16T03:38:30.837Z,1004.36
2019-01-16T03:39:30.879Z,1004.34
2019-01-16T03:40:30.754Z,1004.29
2019-01-16T03:41:30.788Z,1004.34
2019-01-16T03:42:30.686Z,1004.36
2019-01-16T03:43:39.200Z,1004.28
2019-01-16T03:44:30.646Z,1004.24
2019-01-16T03:45:32.670Z,1004.31
2019-01-16T03:46:30.563Z,1004.23
2019-01-16T03:47:45.289Z,1004.28
2019-01-16T03:48:30.501Z,1004.23
2019-01-16T03:49:31.560Z,1004.24
2019-01-16T03:50:30.457Z,1004.23
2019-01-16T03:51:31.482Z,1004.20
2019-01-16T03:52:30.377Z,1004.19
2019-01-16T03:53:32.409Z,1004.19
2019-01-16T03:54:30.314Z,1004.15
2019-01-16T03:55:30.381Z,1004.20
2019-01-16T03:56:30.254Z,1004.22
2019-01-16T03:57:37.246Z,1004.19
2019-01-16T03:58:30.193Z,1004.18
2019-01-16T03:59:30.192Z,1004.16
2019-01-16T04:00:30.128Z,1004.16
2019-01-16T04:01:30.204Z,1004.14
2019-01-16T04:02:30.060Z,1004.13
2019-01-16T04:03:30.114Z,1004.09
2019-01-16T04:04:30.004Z,1004.12
2019-01-16T04:05:30.025Z,1004.10
2019-01-16T04:06:29.944Z,1004.08
2019-01-16T04:08:29.880Z,1004.11
2019-01-16T04:09:29.961Z,1004.06
2019-01-16T04:10:29.810Z,1004.04
2019-01-16T04:11:30.947Z,1004.03
2019-01-16T04:12:29.755Z,1004.11
2019-01-16T04:13:36.731Z,1004.03
2019-01-16T04:14:29.688Z,1004.00
2019-01-16T04:15:30.705Z,1003.97
2019-01-16T04:16:29.718Z,1004.03
2019-01-16T04:17:30.630Z,1003.93
2019-01-16T04:18:29.555Z,1004.06
2019-01-16T04:19:36.265Z,1003.99
2019-01-16T04:20:29.557Z,1003.93
2019-01-16T04:21:31.570Z,1003.97
2019-01-16T04:22:29.514Z,1003.91
2019-01-16T04:23:29.425Z,1003.88
2019-01-16T04:24:29.369Z,1003.95
2019-01-16T04:25:31.392Z,1003.89
2019-01-16T04:26:29.312Z,1003.89
2019-01-16T04:27:50.342Z,1003.86
2019-01-16T04:28:29.315Z,1003.91
2019-01-16T04:29:29.239Z,1003.75
2019-01-16T04:30:29.270Z,1003.71
2019-01-16T04:31:29.158Z,1003.75
2019-01-16T04:32:29.217Z,1003.76
2019-01-16T04:33:29.159Z,1003.73
2019-01-16T04:34:29.107Z,1003.74
2019-01-16T04:35:29.035Z,1003.75
2019-01-16T04:36:30.031Z,1003.77
2019-01-16T04:37:28.969Z,1003.76
2019-01-16T04:38:29.006Z,1003.72
2019-01-16T04:39:28.899Z,1003.75
2019-01-16T04:40:28.926Z,1003.72
2019-01-16T04:41:28.850Z,1003.70
2019-01-16T04:42:28.833Z,1003.72
2019-01-16T04:43:28.793Z,1003.65
2019-01-16T04:44:28.841Z,1003.64
2019-01-16T04:45:28.718Z,1003.66
2019-01-16T04:46:28.756Z,1003.61
2019-01-16T04:47:28.658Z,1003.70
2019-01-16T04:48:28.623Z,1003.70
2019-01-16T04:49:30.507Z,1003.64
2019-01-16T04:50:28.571Z,1003.61
2019-01-16T04:51:28.579Z,1003.63
2019-01-16T04:52:28.502Z,1003.59
2019-01-16T04:53:28.495Z,1003.59
2019-01-16T04:54:28.432Z,1003.56
2019-01-16T04:55:28.505Z,1003.54
2019-01-16T04:56:28.359Z,1003.60
2019-01-16T04:57:28.417Z,1003.56
2019-01-16T04:58:28.308Z,1003.48
2019-01-16T04:59:36.220Z,1003.57
2019-01-16T05:00:28.250Z,1003.57
2019-01-16T05:01:37.250Z,1003.56
2019-01-16T05:02:28.189Z,1003.59
2019-01-16T05:03:28.261Z,1003.56
2019-01-16T05:04:28.120Z,1003.58
2019-01-16T05:05:28.172Z,1003.56
2019-01-16T05:06:28.053Z,1003.55
2019-01-16T05:07:28.149Z,1003.52
2019-01-16T05:08:28.001Z,1003.56
2019-01-16T05:09:27.982Z,1003.55
2019-01-16T05:10:27.929Z,1003.60
2019-01-16T05:11:27.995Z,1003.53
2019-01-16T05:12:29.407Z,1003.54
2019-01-16T05:13:27.929Z,1003.57
2019-01-16T05:14:27.822Z,1003.50
2019-01-16T05:15:27.811Z,1003.60
2019-01-16T05:16:27.763Z,1003.53
2019-01-16T05:17:27.721Z,1003.49
2019-01-16T05:18:27.686Z,1003.51
2019-01-16T05:19:28.770Z,1003.48
2019-01-16T05:20:27.644Z,1003.43
2019-01-16T05:21:27.660Z,1003.43
2019-01-16T05:22:27.570Z,1003.42
2019-01-16T05:23:27.564Z,1003.34
2019-01-16T05:24:27.492Z,1003.34
2019-01-16T05:25:34.232Z,1003.37
2019-01-16T05:26:27.828Z,1003.38
2019-01-16T05:27:27.494Z,1003.33
2019-01-16T05:28:27.362Z,1003.35
2019-01-16T05:29:28.446Z,1003.33
2019-01-16T05:30:27.308Z,1003.30
2019-01-16T05:31:27.316Z,1003.37
2019-01-16T05:32:27.252Z,1003.36
2019-01-16T05:33:34.283Z,1003.32
2019-01-16T05:34:27.181Z,1003.34
2019-01-16T05:35:28.264Z,1003.21
2019-01-16T05:36:27.113Z,1003.29
2019-01-16T05:37:29.194Z,1003.26
2019-01-16T05:38:27.053Z,1003.20
2019-01-16T05:39:27.048Z,1003.18
2019-01-16T05:40:26.994Z,1003.16
2019-01-16T05:41:27.063Z,1003.16
2019-01-16T05:42:26.927Z,1003.14
2019-01-16T05:43:26.979Z,1003.08
2019-01-16T05:44:26.875Z,1003.06
2019-01-16T05:45:26.946Z,1003.18
2019-01-16T05:46:26.802Z,1003.14
2019-01-16T05:47:26.791Z,1003.17
2019-01-16T05:48:26.743Z,1003.20
2019-01-16T05:49:26.805Z,1003.14
2019-01-16T05:50:26.688Z,1003.18
2019-01-16T05:51:26.720Z,1003.13
2019-01-16T05:52:26.614Z,1003.12
2019-01-16T05:53:33.285Z,1003.10
2019-01-16T05:54:26.556Z,1003.07
2019-01-16T05:55:27.569Z,1003.13
2019-01-16T05:56:26.503Z,1003.04
2019-01-16T05:57:26.543Z,1003.06
2019-01-16T05:58:26.438Z,1003.04
2019-01-16T05:59:33.329Z,1002.97
2019-01-16T06:00:26.369Z,1003.03
2019-01-16T06:01:27.401Z,1003.07
2019-01-16T06:02:26.325Z,1003.12
2019-01-16T06:03:26.279Z,1003.05
2019-01-16T06:04:26.241Z,1003.04
2019-01-16T06:05:26.289Z,1003.04
2019-01-16T06:06:26.177Z,1003.06
2019-01-16T06:07:33.786Z,1003.05
2019-01-16T06:08:26.140Z,1003.07
2019-01-16T06:09:27.152Z,1003.08
2019-01-16T06:10:26.061Z,1003.03
2019-01-16T06:11:26.141Z,1003.04
2019-01-16T06:12:26.005Z,1003.07
2019-01-16T06:13:26.038Z,1003.07
2019-01-16T06:14:25.930Z,1003.06
2019-01-16T06:15:26.066Z,1002.99
2019-01-16T06:16:25.875Z,1003.02
2019-01-16T06:17:32.722Z,1003.04
2019-01-16T06:18:25.799Z,1003.05
2019-01-16T06:19:25.867Z,1003.10
2019-01-16T06:20:25.741Z,1003.09
2019-01-16T06:21:25.788Z,1003.14
2019-01-16T06:22:25.692Z,1003.07
2019-01-16T06:23:25.702Z,1003.07
2019-01-16T06:24:25.613Z,1003.02
2019-01-16T06:25:25.613Z,1002.99
2019-01-16T06:26:25.557Z,1003.00
2019-01-16T06:27:25.631Z,1002.94
2019-01-16T06:28:25.507Z,1002.95
2019-01-16T06:29:25.533Z,1002.89
2019-01-16T06:30:25.427Z,1002.85
2019-01-16T06:31:25.408Z,1002.88
2019-01-16T06:32:25.380Z,1002.89
2019-01-16T06:33:25.370Z,1002.85
2019-01-16T06:34:25.341Z,1002.89
2019-01-16T06:35:25.373Z,1002.81
2019-01-16T06:36:25.255Z,1002.79
2019-01-16T06:37:25.277Z,1002.76
2019-01-16T06:38:25.195Z,1002.78
2019-01-16T06:39:26.212Z,1002.81
2019-01-16T06:40:25.105Z,1002.76
2019-01-16T06:41:25.112Z,1002.77
2019-01-16T06:42:25.069Z,1002.81
2019-01-16T06:43:27.057Z,1002.82
2019-01-16T06:44:24.985Z,1002.84
2019-01-16T06:45:26.055Z,1002.77
2019-01-16T06:46:24.926Z,1002.77
2019-01-16T06:47:26.980Z,1002.83
2019-01-16T06:48:24.855Z,1002.80
2019-01-16T06:49:24.946Z,1002.78
2019-01-16T06:50:24.792Z,1002.82
2019-01-16T06:51:31.816Z,1002.83
2019-01-16T06:52:24.739Z,1002.82
2019-01-16T06:53:25.793Z,1002.84
2019-01-16T06:54:24.663Z,1002.80
2019-01-16T06:55:26.726Z,1002.82
2019-01-16T06:56:24.619Z,1002.78
2019-01-16T06:57:25.644Z,1002.77
2019-01-16T06:58:24.548Z,1002.76
2019-01-16T06:59:25.622Z,1002.81
2019-01-16T07:00:24.479Z,1002.80
2019-01-16T07:01:24.508Z,1002.76
2019-01-16T07:02:24.431Z,1002.77
2019-01-16T07:03:24.423Z,1002.82
2019-01-16T07:04:24.356Z,1002.78
2019-01-16T07:05:25.356Z,1002.77
2019-01-16T07:06:24.288Z,1002.77
2019-01-16T07:07:24.351Z,1002.79
2019-01-16T07:08:24.233Z,1002.81
2019-01-16T07:09:24.250Z,1002.79
2019-01-16T07:10:24.175Z,1002.80
2019-01-16T07:11:25.202Z,1002.80
2019-01-16T07:12:24.107Z,1002.80
2019-01-16T07:13:25.103Z,1002.72
2019-01-16T07:14:24.044Z,1002.79
2019-01-16T07:15:25.104Z,1002.71
2019-01-16T07:16:23.985Z,1002.77
2019-01-16T07:17:25.017Z,1002.73
2019-01-16T07:18:23.930Z,1002.73
2019-01-16T07:19:23.904Z,1002.71
2019-01-16T07:20:23.870Z,1002.74
2019-01-16T07:21:23.918Z,1002.74
2019-01-16T07:22:23.798Z,1002.73
2019-01-16T07:23:30.789Z,1002.76
2019-01-16T07:24:23.744Z,1002.70
2019-01-16T07:25:24.766Z,1002.73
2019-01-16T07:26:23.661Z,1002.69
2019-01-16T07:27:23.773Z,1002.73
2019-01-16T07:28:23.608Z,1002.71
2019-01-16T07:29:30.319Z,1002.71
2019-01-16T07:30:23.542Z,1002.74
2019-01-16T07:31:23.567Z,1002.74
2019-01-16T07:32:23.482Z,1002.73
2019-01-16T07:33:24.601Z,1002.78
2019-01-16T07:34:23.442Z,1002.74
2019-01-16T07:35:31.388Z,1002.69
2019-01-16T07:36:23.381Z,1002.71
2019-01-16T07:37:23.558Z,1002.69
2019-01-16T07:38:23.320Z,1002.81
2019-01-16T07:39:24.228Z,1002.76
2019-01-16T07:40:23.264Z,1002.74
2019-01-16T07:41:23.372Z,1002.76
2019-01-16T07:42:23.189Z,1002.70
2019-01-16T07:43:24.170Z,1002.74
2019-01-16T07:44:23.112Z,1002.77
2019-01-16T07:45:23.165Z,1002.77
2019-01-16T07:46:23.050Z,1002.71
2019-01-16T07:47:24.101Z,1002.70
2019-01-16T07:48:22.987Z,1002.75
2019-01-16T07:49:22.974Z,1002.76
2019-01-16T07:50:24.019Z,1002.74
2019-01-16T07:51:22.902Z,1002.77
2019-01-16T07:52:22.933Z,1002.83
2019-01-16T07:53:22.842Z,1002.77
2019-01-16T07:54:22.916Z,1002.78
2019-01-16T07:55:22.768Z,1002.81
2019-01-16T07:56:22.844Z,1002.78
2019-01-16T07:57:22.697Z,1002.75
2019-01-16T07:58:22.754Z,1002.79
2019-01-16T07:59:22.645Z,1002.79
2019-01-16T08:00:22.644Z,1002.83
2019-01-16T08:01:22.579Z,1002.80
2019-01-16T08:02:22.663Z,1002.82
2019-01-16T08:03:22.507Z,1002.83
2019-01-16T08:04:22.493Z,1002.81
2019-01-16T08:05:22.586Z,1002.81
2019-01-16T08:06:22.474Z,1002.84
2019-01-16T08:07:22.493Z,1002.85
2019-01-16T08:08:22.357Z,1002.87
2019-01-16T08:09:22.427Z,1002.87
2019-01-16T08:10:22.303Z,1002.83
2019-01-16T08:11:22.312Z,1002.87
2019-01-16T08:12:22.227Z,1002.82
2019-01-16T08:13:22.329Z,1002.83
2019-01-16T08:14:22.170Z,1002.83
2019-01-16T08:15:22.267Z,1002.80
2019-01-16T08:16:22.107Z,1002.87
2019-01-16T08:17:22.170Z,1002.85
2019-01-16T08:18:22.051Z,1002.82
2019-01-16T08:19:23.105Z,1002.84
2019-01-16T08:20:25.057Z,1002.85
2019-01-16T08:21:29.872Z,1002.85
2019-01-16T08:22:21.917Z,1002.84
2019-01-16T08:23:23.018Z,1002.82
2019-01-16T08:24:21.873Z,1002.85
2019-01-16T08:25:21.906Z,1002.83
2019-01-16T08:26:21.820Z,1002.87
2019-01-16T08:27:22.841Z,1002.84
2019-01-16T08:28:21.768Z,1002.86
2019-01-16T08:29:23.765Z,1002.82
2019-01-16T08:30:21.707Z,1002.84
2019-01-16T08:31:22.771Z,1002.87
2019-01-16T08:32:21.681Z,1002.81
2019-01-16T08:33:36.299Z,1002.76
2019-01-16T08:34:21.540Z,1002.79
2019-01-16T08:35:30.392Z,1002.74
2019-01-16T08:36:21.503Z,1002.78
2019-01-16T08:37:21.583Z,1002.77
2019-01-16T08:38:21.440Z,1002.78
2019-01-16T08:39:23.543Z,1002.75
2019-01-16T08:40:21.367Z,1002.70
2019-01-16T08:41:21.398Z,1002.73
2019-01-16T08:42:21.304Z,1002.73
2019-01-16T08:43:23.372Z,1002.66
2019-01-16T08:44:21.250Z,1002.61
2019-01-16T08:45:29.824Z,1002.60
2019-01-16T08:46:21.165Z,1002.64
2019-01-16T08:47:23.276Z,1002.64
2019-01-16T08:48:21.139Z,1002.56
2019-01-16T08:49:21.162Z,1002.57
2019-01-16T08:50:21.053Z,1002.66
2019-01-16T08:51:21.064Z,1002.67
2019-01-16T08:52:20.993Z,1002.63
2019-01-16T08:53:21.077Z,1002.64
2019-01-16T08:54:20.956Z,1002.64
2019-01-16T08:55:22.028Z,1002.73
2019-01-16T08:56:20.849Z,1002.72
2019-01-16T08:57:27.869Z,1002.71
2019-01-16T08:58:20.790Z,1002.69
2019-01-16T08:59:22.846Z,1002.71
2019-01-16T09:00:20.729Z,1002.73
2019-01-16T09:01:21.877Z,1002.74
2019-01-16T09:02:20.683Z,1002.72
2019-01-16T09:03:21.789Z,1002.80
2019-01-16T09:04:20.624Z,1002.75
2019-01-16T09:05:27.423Z,1002.80
2019-01-16T09:06:20.586Z,1002.80
2019-01-16T09:07:21.558Z,1002.71
2019-01-16T09:08:20.505Z,1002.78
2019-01-16T09:09:20.551Z,1002.74
2019-01-16T09:10:20.408Z,1002.69
2019-01-16T09:11:20.451Z,1002.71
2019-01-16T09:12:20.344Z,1002.67
2019-01-16T09:13:20.346Z,1002.66
2019-01-16T09:14:20.336Z,1002.69
2019-01-16T09:15:20.358Z,1002.59
2019-01-16T09:16:20.244Z,1002.65
2019-01-16T09:17:20.283Z,1002.64
2019-01-16T09:18:20.180Z,1002.59
2019-01-16T09:19:20.145Z,1002.58
2019-01-16T09:20:20.130Z,1002.63
2019-01-16T09:21:20.146Z,1002.55
2019-01-16T09:22:20.086Z,1002.59
2019-01-16T09:23:20.012Z,1002.56
2019-01-16T09:24:20.013Z,1002.58
2019-01-16T09:25:19.943Z,1002.52
2019-01-16T09:26:20.003Z,1002.47
2019-01-16T09:27:19.872Z,1002.46
2019-01-16T09:28:19.920Z,1002.45
2019-01-16T09:29:19.820Z,1002.45
2019-01-16T09:30:19.831Z,1002.44
2019-01-16T09:31:19.765Z,1002.34
2019-01-16T09:32:19.746Z,1002.42
2019-01-16T09:33:19.693Z,1002.37
2019-01-16T09:34:19.802Z,1002.42
2019-01-16T09:35:19.636Z,1002.38
2019-01-16T09:36:19.664Z,1002.35
2019-01-16T09:37:19.561Z,1002.32
2019-01-16T09:38:19.576Z,1002.36
2019-01-16T09:39:19.517Z,1002.33
2019-01-16T09:40:19.474Z,1002.39
2019-01-16T09:41:19.495Z,1002.37
2019-01-16T09:42:19.418Z,1002.35
2019-01-16T09:43:19.402Z,1002.30
2019-01-16T09:44:19.351Z,1002.29
2019-01-16T09:45:19.414Z,1002.32
2019-01-16T09:46:19.284Z,1002.30
2019-01-16T09:47:19.334Z,1002.32
2019-01-16T09:48:19.220Z,1002.23
2019-01-16T09:49:19.238Z,1002.22
2019-01-16T09:50:19.164Z,1002.20
2019-01-16T09:51:19.160Z,1002.25
2019-01-16T09:52:19.280Z,1002.18
2019-01-16T09:53:19.182Z,1002.22
2019-01-16T09:54:19.030Z,1002.16
2019-01-16T09:55:19.045Z,1002.17
2019-01-16T09:56:19.121Z,1002.20
2019-01-16T09:57:18.986Z,1002.20
2019-01-16T09:58:18.928Z,1002.22
2019-01-16T09:59:18.935Z,1002.15
2019-01-16T10:00:18.841Z,1002.23
2019-01-16T10:01:18.969Z,1002.24
2019-01-16T10:02:18.791Z,1002.22
2019-01-16T10:03:18.854Z,1002.22
2019-01-16T10:04:18.732Z,1002.15
2019-01-16T10:05:18.767Z,1002.19
2019-01-16T10:06:18.665Z,1002.16
2019-01-16T10:07:18.744Z,1002.17
2019-01-16T10:08:18.606Z,1002.16
2019-01-16T10:09:18.654Z,1002.08
2019-01-16T10:10:18.546Z,1002.16
2019-01-16T10:11:18.569Z,1002.23
2019-01-16T10:12:18.536Z,1002.19
2019-01-16T10:13:18.542Z,1002.15
2019-01-16T10:14:18.451Z,1002.20
2019-01-16T10:15:19.438Z,1002.21
2019-01-16T10:16:18.387Z,1002.21
2019-01-16T10:17:19.466Z,1002.14
2019-01-16T10:18:18.336Z,1002.13
2019-01-16T10:19:19.378Z,1002.14
2019-01-16T10:20:18.257Z,1002.08
2019-01-16T10:21:19.282Z,1002.14
2019-01-16T10:22:18.175Z,1002.08
2019-01-16T10:23:18.300Z,1002.05
2019-01-16T10:24:18.114Z,1002.03
2019-01-16T10:25:18.155Z,1002.01
2019-01-16T10:26:18.069Z,1002.03
2019-01-16T10:27:18.100Z,1001.95
2019-01-16T10:28:17.971Z,1001.90
2019-01-16T10:29:17.968Z,1001.94
2019-01-16T10:30:17.962Z,1001.92
2019-01-16T10:31:17.980Z,1001.79
2019-01-16T10:32:17.851Z,1001.85
2019-01-16T10:33:17.819Z,1001.76
2019-01-16T10:34:17.961Z,1001.77
2019-01-16T10:35:17.762Z,1001.78
2019-01-16T10:36:17.851Z,1001.74
2019-01-16T10:37:17.712Z,1001.74
2019-01-16T10:38:17.714Z,1001.74
2019-01-16T10:39:17.649Z,1001.71
2019-01-16T10:40:24.423Z,1001.73
2019-01-16T10:41:17.669Z,1001.66
2019-01-16T10:42:17.741Z,1001.65
2019-01-16T10:43:17.783Z,1001.68
2019-01-16T10:44:17.840Z,1001.71
2019-01-16T10:45:18.532Z,1001.67
2019-01-16T10:46:17.452Z,1001.63
2019-01-16T10:47:17.378Z,1001.73
2019-01-16T10:48:17.372Z,1001.65
2019-01-16T10:49:17.325Z,1001.65
2019-01-16T10:50:17.294Z,1001.71
2019-01-16T10:51:17.263Z,1001.64
2019-01-16T10:52:17.298Z,1001.67
2019-01-16T10:53:17.197Z,1001.68
2019-01-16T10:54:17.173Z,1001.68
2019-01-16T10:55:17.133Z,1001.64
2019-01-16T10:56:17.127Z,1001.65
2019-01-16T10:57:17.167Z,1001.61
2019-01-16T10:58:17.036Z,1001.56
2019-01-16T10:59:18.115Z,1001.58
2019-01-16T11:00:16.981Z,1001.53
2019-01-16T11:01:23.825Z,1001.53
2019-01-16T11:02:16.934Z,1001.42
2019-01-16T11:03:16.957Z,1001.46
2019-01-16T11:04:16.877Z,1001.39
2019-01-16T11:05:17.889Z,1001.44
2019-01-16T11:06:16.781Z,1001.36
2019-01-16T11:07:17.816Z,1001.43
2019-01-16T11:08:16.728Z,1001.32
2019-01-16T11:09:17.714Z,1001.35
2019-01-16T11:10:16.691Z,1001.33
2019-01-16T11:11:16.711Z,1001.34
2019-01-16T11:12:16.611Z,1001.34
2019-01-16T11:13:18.674Z,1001.35
2019-01-16T11:14:16.545Z,1001.28
2019-01-16T11:15:16.525Z,1001.39
2019-01-16T11:16:16.463Z,1001.37
2019-01-16T11:17:16.446Z,1001.38
2019-01-16T11:18:16.424Z,1001.33
2019-01-16T11:19:16.378Z,1001.35
2019-01-16T11:20:16.337Z,1001.34
2019-01-16T11:21:16.324Z,1001.28
2019-01-16T11:22:18.320Z,1001.33
2019-01-16T11:23:16.309Z,1001.30
2019-01-16T11:24:16.292Z,1001.31
2019-01-16T11:25:16.290Z,1001.22
2019-01-16T11:26:16.194Z,1001.28
2019-01-16T11:27:16.223Z,1001.15
2019-01-16T11:28:16.089Z,1001.16
2019-01-16T11:29:16.118Z,1001.11
2019-01-16T11:30:16.040Z,1001.18
2019-01-16T11:31:16.157Z,1001.12
2019-01-16T11:32:15.974Z,1001.08
2019-01-16T11:33:16.061Z,1001.12
2019-01-16T11:34:15.984Z,1001.07
2019-01-16T11:35:15.951Z,1001.02
2019-01-16T11:36:15.840Z,1001.04
2019-01-16T11:37:15.809Z,1000.97
2019-01-16T11:38:15.889Z,1000.92
2019-01-16T11:39:15.749Z,1000.96
2019-01-16T11:40:15.728Z,1000.93
2019-01-16T11:41:15.679Z,1000.91
2019-01-16T11:42:15.711Z,1000.97
2019-01-16T11:43:15.617Z,1000.90
2019-01-16T11:44:15.714Z,1000.90
2019-01-16T11:45:15.554Z,1000.87
2019-01-16T11:46:15.528Z,1000.89
2019-01-16T11:47:15.497Z,1000.82
2019-01-16T11:48:15.481Z,1000.79
2019-01-16T11:49:15.465Z,1000.80
2019-01-16T11:50:16.467Z,1000.80
2019-01-16T11:51:18.848Z,1000.80
2019-01-16T11:52:15.344Z,1000.74
2019-01-16T11:53:15.307Z,1000.79
2019-01-16T11:54:15.281Z,1000.72
2019-01-16T11:55:15.250Z,1000.65
2019-01-16T11:56:16.301Z,1000.77
2019-01-16T11:57:15.189Z,1000.64
2019-01-16T11:58:15.156Z,1000.68
2019-01-16T11:59:15.117Z,1000.63
2019-01-16T12:00:16.791Z,1000.65
2019-01-16T12:01:15.259Z,1000.65
2019-01-16T12:02:15.029Z,1000.63
2019-01-16T12:03:15.014Z,1000.58
2019-01-16T12:04:14.979Z,1000.62
2019-01-16T12:05:14.960Z,1000.60
2019-01-16T12:06:15.999Z,1000.62
2019-01-16T12:07:14.871Z,1000.62
2019-01-16T12:08:14.851Z,1000.64